createdAt,value
2018-12-10T00:01:09.216Z,29.00
2018-12-10T00:03:37.203Z,28.77
2018-12-10T00:06:04.773Z,29.87
2018-12-10T00:08:32.594Z,25.87
2018-12-10T00:11:00.405Z,28.70
2018-12-10T00:13:28.409Z,29.30
2018-12-10T00:15:55.949Z,29.47
2018-12-10T00:18:23.503Z,30.50
2018-12-10T00:20:51.027Z,29.83
2018-12-10T00:23:18.551Z,30.13
2018-12-10T00:25:46.379Z,28.93
2018-12-10T00:28:13.925Z,30.00
2018-12-10T00:30:41.453Z,29.67
2018-12-10T00:33:09.044Z,30.20
2018-12-10T00:35:37.460Z,29.70
2018-12-10T00:38:04.988Z,29.30
2018-12-10T00:40:32.773Z,28.83
2018-12-10T00:43:00.312Z,28.57
2018-12-10T00:45:27.835Z,30.53
2018-12-10T00:47:55.655Z,28.73
2018-12-10T00:50:23.200Z,28.77
2018-12-10T00:52:50.841Z,28.10
2018-12-10T00:55:18.407Z,28.33
2018-12-10T00:57:46.572Z,27.43
2018-12-10T01:00:14.129Z,27.97
2018-12-10T01:02:41.939Z,27.47
2018-12-10T01:05:09.485Z,26.57
2018-12-10T01:07:37.012Z,26.47
2018-12-10T01:10:05.243Z,26.57
2018-12-10T01:12:32.777Z,27.47
2018-12-10T01:15:00.317Z,25.07
2018-12-10T01:17:27.878Z,23.77
2018-12-10T01:19:55.421Z,27.13
2018-12-10T01:22:22.974Z,25.53
2018-12-10T01:24:50.809Z,26.63
2018-12-10T01:27:18.379Z,26.33
2018-12-10T01:29:45.919Z,26.60
2018-12-10T01:32:13.792Z,28.77
2018-12-10T01:34:41.321Z,29.23
2018-12-10T01:37:08.854Z,29.03
2018-12-10T01:39:36.683Z,29.23
2018-12-10T01:42:04.222Z,27.07
2018-12-10T01:44:31.759Z,28.47
2018-12-10T01:46:59.321Z,28.53
2018-12-10T01:49:26.864Z,30.07
2018-12-10T01:51:54.383Z,31.13
2018-12-10T01:54:22.264Z,31.80
2018-12-10T01:56:49.789Z,31.13
2018-12-10T01:59:17.316Z,30.03
2018-12-10T02:01:44.869Z,30.23
2018-12-10T02:04:12.440Z,28.30
2018-12-10T02:06:40.101Z,27.83
2018-12-10T02:09:08.038Z,30.47
2018-12-10T02:11:35.564Z,30.37
2018-12-10T02:14:03.332Z,28.23
2018-12-10T02:16:30.881Z,29.33
2018-12-10T02:18:58.407Z,30.00
2018-12-10T02:21:26.017Z,29.60
2018-12-10T02:23:53.896Z,29.70
2018-12-10T02:26:21.418Z,28.50
2018-12-10T02:28:54.762Z,25.67
2018-12-10T02:31:22.317Z,26.73
2018-12-10T02:33:49.831Z,26.50
2018-12-10T02:36:17.857Z,29.00
2018-12-10T02:38:45.412Z,28.13
2018-12-10T02:41:12.945Z,28.23
2018-12-10T02:43:40.737Z,29.07
2018-12-10T02:46:08.317Z,29.30
2018-12-10T02:48:35.836Z,28.63
2018-12-10T02:51:03.619Z,28.90
2018-12-10T02:53:31.136Z,29.07
2018-12-10T02:55:58.665Z,25.43
2018-12-10T02:58:26.295Z,26.83
2018-12-10T03:00:53.809Z,29.60
2018-12-10T03:03:21.329Z,27.90
2018-12-10T03:05:49.010Z,27.57
2018-12-10T03:08:16.580Z,28.83
2018-12-10T03:10:44.115Z,28.23
2018-12-10T03:13:11.995Z,28.33
2018-12-10T03:15:39.540Z,29.47
2018-12-10T03:18:07.082Z,27.20
2018-12-10T03:20:35.054Z,25.07
2018-12-10T03:23:02.591Z,26.50
2018-12-10T03:25:30.130Z,27.70
2018-12-10T03:27:57.706Z,30.07
2018-12-10T03:30:25.250Z,29.57
2018-12-10T03:32:52.765Z,30.20
2018-12-10T03:35:20.341Z,31.23
2018-12-10T03:37:47.877Z,31.73
2018-12-10T03:40:15.418Z,31.70
2018-12-10T03:42:43.002Z,29.70
2018-12-10T03:45:10.530Z,28.83
2018-12-10T03:47:38.083Z,32.13
2018-12-10T03:50:06.941Z,32.30
2018-12-10T03:52:34.464Z,33.03
2018-12-10T03:55:01.983Z,32.13
2018-12-10T03:57:29.893Z,32.80
2018-12-10T03:59:57.414Z,33.80
2018-12-10T04:02:24.947Z,33.30
2018-12-10T04:04:52.686Z,34.97
2018-12-10T04:07:20.213Z,33.37
2018-12-10T04:09:47.755Z,33.77
2018-12-10T04:12:15.608Z,34.20
2018-12-10T04:14:43.131Z,31.83
2018-12-10T04:17:10.679Z,31.17
2018-12-10T04:19:38.252Z,31.90
2018-12-10T04:22:05.793Z,32.53
2018-12-10T04:24:33.335Z,31.57
2018-12-10T04:27:00.920Z,32.67
2018-12-10T04:29:28.461Z,31.63
2018-12-10T04:31:55.995Z,36.10
2018-12-10T04:34:23.840Z,36.83
2018-12-10T04:36:51.613Z,38.53
2018-12-10T04:39:19.160Z,39.03
2018-12-10T04:41:47.046Z,36.60
2018-12-10T04:44:14.635Z,38.77
2018-12-10T04:46:42.177Z,35.50
2018-12-10T04:49:09.967Z,35.97
2018-12-10T04:51:37.512Z,37.13
2018-12-10T04:54:05.041Z,38.77
2018-12-10T04:56:32.903Z,37.63
2018-12-10T04:59:01.014Z,38.50
2018-12-10T05:01:28.621Z,41.40
2018-12-10T05:03:56.184Z,40.17
2018-12-10T05:06:23.735Z,40.43
2018-12-10T05:08:51.257Z,42.10
2018-12-10T05:11:19.080Z,39.03
2018-12-10T05:13:46.642Z,37.47
2018-12-10T05:16:14.201Z,37.90
2018-12-10T05:18:42.197Z,37.60
2018-12-10T05:21:09.752Z,36.87
2018-12-10T05:23:37.290Z,35.53
2018-12-10T05:26:04.842Z,35.33
2018-12-10T05:28:32.415Z,35.93
2018-12-10T05:30:59.944Z,36.33
2018-12-10T05:33:27.513Z,31.83
2018-12-10T05:35:55.047Z,33.77
2018-12-10T05:38:22.578Z,35.97
2018-12-10T05:40:50.436Z,36.77
2018-12-10T05:43:17.955Z,37.33
2018-12-10T05:45:45.545Z,35.67
2018-12-10T05:48:13.653Z,35.90
2018-12-10T05:50:41.177Z,36.50
2018-12-10T05:53:08.742Z,36.03
2018-12-10T05:55:36.548Z,34.83
2018-12-10T05:58:04.063Z,37.27
2018-12-10T06:00:31.592Z,34.03
2018-12-10T06:02:59.411Z,35.70
2018-12-10T06:05:26.955Z,36.47
2018-12-10T06:07:54.554Z,38.07
2018-12-10T06:10:22.220Z,35.57
2018-12-10T06:12:49.742Z,37.17
2018-12-10T06:15:17.296Z,36.57
2018-12-10T06:17:45.147Z,40.07
2018-12-10T06:20:13.158Z,40.70
2018-12-10T06:22:40.676Z,40.23
2018-12-10T06:25:08.193Z,38.83
2018-12-10T06:27:36.122Z,37.23
2018-12-10T06:30:04.232Z,38.97
2018-12-10T06:32:31.762Z,40.00
2018-12-10T06:34:59.628Z,39.93
2018-12-10T06:37:27.507Z,36.07
2018-12-10T06:39:55.059Z,40.67
2018-12-10T06:42:22.597Z,43.77
2018-12-10T06:44:50.413Z,46.63
2018-12-10T06:47:17.944Z,49.03
2018-12-10T06:49:45.461Z,43.53
2018-12-10T06:52:13.308Z,40.80
2018-12-10T06:54:40.984Z,40.47
2018-12-10T06:57:08.505Z,43.30
2018-12-10T06:59:36.461Z,45.33
2018-12-10T07:02:04.372Z,41.90
2018-12-10T07:04:31.954Z,41.60
2018-12-10T07:06:59.525Z,47.37
2018-12-10T07:09:27.425Z,47.93
2018-12-10T07:11:54.952Z,51.30
2018-12-10T07:14:22.552Z,55.17
2018-12-10T07:16:50.418Z,55.03
2018-12-10T07:19:17.947Z,58.43
2018-12-10T07:21:45.489Z,59.40
2018-12-10T07:24:13.843Z,59.37
2018-12-10T07:26:41.381Z,64.00
2018-12-10T07:29:09.272Z,59.37
2018-12-10T07:31:36.908Z,58.13
2018-12-10T07:34:04.802Z,55.00
2018-12-10T07:36:32.876Z,57.83
2018-12-10T07:39:00.922Z,57.17
2018-12-10T07:41:28.585Z,58.30
2018-12-10T07:43:56.757Z,60.17
2018-12-10T07:46:24.283Z,61.67
2018-12-10T07:48:51.871Z,58.47
2018-12-10T07:51:19.433Z,55.37
2018-12-10T07:53:46.972Z,50.80
2018-12-10T07:56:14.664Z,53.80
2018-12-10T07:58:42.206Z,62.77
2018-12-10T08:01:10.016Z,62.53
2018-12-10T08:03:37.544Z,64.10
2018-12-10T08:06:05.075Z,47.50
2018-12-10T08:08:32.895Z,35.50
2018-12-10T08:11:00.440Z,27.50
2018-12-10T08:13:27.962Z,35.70
2018-12-10T08:15:55.866Z,24.73
2018-12-10T08:18:23.855Z,23.93
2018-12-10T08:20:51.694Z,23.30
2018-12-10T08:23:19.229Z,22.70
2018-12-10T08:25:46.748Z,18.97
2018-12-10T08:28:14.640Z,25.27
2018-12-10T08:30:42.160Z,55.53
2018-12-10T08:33:09.867Z,35.90
2018-12-10T08:35:40.939Z,79.23
2018-12-10T08:38:06.982Z,32.53
2018-12-10T08:40:34.535Z,21.60
2018-12-10T08:43:02.062Z,17.20
2018-12-10T08:45:29.635Z,18.33
2018-12-10T08:47:57.521Z,81.77
2018-12-10T08:50:25.069Z,53.67
2018-12-10T08:52:53.344Z,30.80
2018-12-10T08:55:21.012Z,26.73
2018-12-10T08:57:48.550Z,17.67
2018-12-10T09:00:16.333Z,16.33
2018-12-10T09:02:43.870Z,15.17
2018-12-10T09:05:11.448Z,15.47
2018-12-10T09:07:39.250Z,15.60
2018-12-10T09:10:07.228Z,28.93
2018-12-10T09:12:34.863Z,82.27
2018-12-10T09:15:02.743Z,54.83
2018-12-10T09:17:30.309Z,103.17
2018-12-10T09:19:57.875Z,37.33
2018-12-10T09:22:25.790Z,46.67
2018-12-10T09:24:53.317Z,18.30
2018-12-10T09:27:20.932Z,16.80
2018-12-10T09:29:48.947Z,18.80
2018-12-10T09:32:16.502Z,20.43
2018-12-10T09:34:44.038Z,19.33
2018-12-10T09:37:11.900Z,25.73
2018-12-10T09:39:39.452Z,30.73
2018-12-10T09:42:07.013Z,28.40
2018-12-10T09:44:34.798Z,32.50
2018-12-10T09:47:02.451Z,30.83
2018-12-10T09:49:29.958Z,49.00
2018-12-10T09:51:58.075Z,46.83
2018-12-10T09:54:25.595Z,32.97
2018-12-10T09:56:53.215Z,33.90
2018-12-10T09:59:20.745Z,35.27
2018-12-10T10:01:48.302Z,36.37
2018-12-10T10:04:16.092Z,51.53
2018-12-10T10:06:43.973Z,37.27
2018-12-10T10:09:11.719Z,22.23
2018-12-10T10:11:39.610Z,31.53
2018-12-10T10:14:07.470Z,27.53
2018-12-10T10:16:35.629Z,32.00
2018-12-10T10:19:03.141Z,23.00
2018-12-10T10:21:30.714Z,21.93
2018-12-10T10:23:59.531Z,18.60
2018-12-10T10:26:27.300Z,14.97
2018-12-10T10:28:54.864Z,12.20
2018-12-10T10:31:22.563Z,12.83
2018-12-10T10:33:50.087Z,14.93
2018-12-10T10:36:17.604Z,15.03
2018-12-10T10:38:45.723Z,13.63
2018-12-10T10:41:13.422Z,15.07
2018-12-10T10:43:41.051Z,16.17
2018-12-10T10:46:08.933Z,13.57
2018-12-10T10:48:36.442Z,13.10
2018-12-10T10:51:04.087Z,14.17
2018-12-10T10:53:32.101Z,14.10
2018-12-10T10:55:59.898Z,14.90
2018-12-10T10:58:27.772Z,13.97
2018-12-10T11:01:00.921Z,13.77
2018-12-10T11:03:34.004Z,14.70
2018-12-10T11:06:01.891Z,13.27
2018-12-10T11:08:29.455Z,12.07
2018-12-10T11:10:56.972Z,10.07
2018-12-10T11:13:24.808Z,11.20
2018-12-10T11:15:52.368Z,9.83
2018-12-10T11:18:19.912Z,12.07
2018-12-10T11:20:48.022Z,11.40
2018-12-10T11:23:15.573Z,9.50
2018-12-10T11:25:43.488Z,11.97
2018-12-10T11:28:11.018Z,9.00
2018-12-10T11:30:38.628Z,8.77
2018-12-10T11:33:06.652Z,10.43
2018-12-10T11:35:34.193Z,10.83
2018-12-10T11:38:01.725Z,11.30
2018-12-10T11:40:29.690Z,12.47
2018-12-10T11:42:57.257Z,12.53
2018-12-10T11:45:24.832Z,12.00
2018-12-10T11:47:52.757Z,16.47
2018-12-10T11:50:20.690Z,11.93
2018-12-10T11:52:48.670Z,10.10
2018-12-10T11:55:16.287Z,12.87
2018-12-10T11:57:44.257Z,12.00
2018-12-10T12:00:11.776Z,22.50
2018-12-10T12:02:39.300Z,12.17
2018-12-10T12:05:07.157Z,12.93
2018-12-10T12:07:34.676Z,16.17
2018-12-10T12:10:02.317Z,15.27
2018-12-10T13:44:28.572Z,18.37
2018-12-10T13:46:56.684Z,19.03
2018-12-10T13:49:24.208Z,17.77
2018-12-10T13:51:51.758Z,18.57
2018-12-10T13:54:19.832Z,29.07
2018-12-10T13:56:47.906Z,25.50
2018-12-10T13:59:15.559Z,24.73
2018-12-10T14:01:43.079Z,23.90
2018-12-10T14:04:11.966Z,19.07
2018-12-10T14:06:40.596Z,20.93
2018-12-10T14:09:08.268Z,19.43
2018-12-10T14:11:35.823Z,19.60
2018-12-10T14:14:03.331Z,21.27
2018-12-10T14:16:30.857Z,19.33
2018-12-10T14:18:58.944Z,21.20
2018-12-10T14:21:26.481Z,21.07
2018-12-10T14:23:54.122Z,25.37
2018-12-10T14:26:21.941Z,28.87
2018-12-10T14:28:49.538Z,27.83
2018-12-10T14:31:17.052Z,26.20
2018-12-10T14:33:45.002Z,23.33
2018-12-10T14:36:12.524Z,19.77
2018-12-10T14:38:40.110Z,18.93
2018-12-10T14:41:07.901Z,19.67
2018-12-10T14:43:35.419Z,19.33
2018-12-10T14:46:03.008Z,17.00
2018-12-10T14:48:30.804Z,16.33
2018-12-10T14:50:58.318Z,16.73
2018-12-10T14:53:25.898Z,16.10
2018-12-10T14:55:53.762Z,16.67
2018-12-10T14:58:21.267Z,16.10
2018-12-10T15:00:48.886Z,14.67
2018-12-10T15:03:16.752Z,13.37
2018-12-10T15:05:44.536Z,15.50
2018-12-10T15:08:12.414Z,17.20
2018-12-10T15:10:39.993Z,12.03
2018-12-10T15:13:08.231Z,13.00
2018-12-10T15:15:35.814Z,13.43
2018-12-10T15:18:03.420Z,13.40
2018-12-10T15:20:31.357Z,14.10
2018-12-10T15:22:59.098Z,12.47
2018-12-10T15:25:26.854Z,11.20
2018-12-10T15:27:54.664Z,12.23
2018-12-10T15:30:22.213Z,11.83
2018-12-10T15:32:50.654Z,11.57
2018-12-10T15:35:18.631Z,13.23
2018-12-10T15:37:46.497Z,13.10
2018-12-10T15:40:14.292Z,19.33
2018-12-10T15:42:42.247Z,13.20
2018-12-10T15:45:09.816Z,14.17
2018-12-10T15:47:37.490Z,14.77
2018-12-10T15:50:05.149Z,18.07
2018-12-10T15:52:33.113Z,16.73
2018-12-10T15:55:00.663Z,16.70
2018-12-10T15:57:28.206Z,22.57
2018-12-10T15:59:56.322Z,22.63
2018-12-10T16:02:24.051Z,22.47
2018-12-10T16:04:51.607Z,24.60
2018-12-10T16:07:19.482Z,23.30
2018-12-10T16:09:47.138Z,20.83
2018-12-10T16:12:14.693Z,23.37
2018-12-10T16:14:42.362Z,23.90
2018-12-10T16:17:09.896Z,22.57
2018-12-10T16:19:37.424Z,31.80
2018-12-10T16:22:05.044Z,33.30
2018-12-10T16:24:32.602Z,31.33
2018-12-10T16:27:00.274Z,28.13
2018-12-10T16:29:27.944Z,25.80
2018-12-10T16:31:55.535Z,27.90
2018-12-10T16:34:23.129Z,30.83
2018-12-10T16:36:50.947Z,30.37
2018-12-10T16:39:18.463Z,28.27
2018-12-10T16:41:46.004Z,27.37
2018-12-10T16:44:14.016Z,25.97
2018-12-10T16:46:41.765Z,33.37
2018-12-10T16:49:09.284Z,32.47
2018-12-10T16:51:37.143Z,31.40
2018-12-10T16:54:04.769Z,27.63
2018-12-10T16:56:32.362Z,29.97
2018-12-10T16:59:00.320Z,31.87
2018-12-10T17:01:27.894Z,25.20
2018-12-10T17:03:55.447Z,16.93
2018-12-10T17:06:23.360Z,21.17
2018-12-10T17:08:51.004Z,15.87
2018-12-10T17:11:18.556Z,13.67
2018-12-10T17:13:47.153Z,12.53
2018-12-10T17:16:14.664Z,12.20
2018-12-10T17:18:42.214Z,12.70
2018-12-10T17:21:10.750Z,10.90
2018-12-10T17:23:38.316Z,12.80
2018-12-10T17:26:05.876Z,16.00
2018-12-10T17:28:33.503Z,16.67
2018-12-10T17:31:01.090Z,18.90
2018-12-10T17:33:28.629Z,15.27
2018-12-10T17:35:56.772Z,13.10
2018-12-10T17:38:24.387Z,13.97
2018-12-10T17:40:51.912Z,12.50
2018-12-10T17:43:19.466Z,10.97
2018-12-10T17:45:47.238Z,13.13
2018-12-10T17:48:15.141Z,12.80
2018-12-10T17:50:42.709Z,15.10
2018-12-10T17:53:10.267Z,15.90
2018-12-10T17:55:38.150Z,17.40
2018-12-10T17:58:05.696Z,19.03
2018-12-10T18:00:33.257Z,15.10
2018-12-10T18:03:00.881Z,13.40
2018-12-10T18:05:28.480Z,11.50
2018-12-10T18:07:56.039Z,8.90
2018-12-10T18:10:23.607Z,10.33
2018-12-10T18:12:51.164Z,9.93
2018-12-10T18:15:18.705Z,11.07
2018-12-10T18:17:46.617Z,12.53
2018-12-10T18:20:14.174Z,12.60
2018-12-10T18:22:41.697Z,11.07
2018-12-10T18:25:09.606Z,10.77
2018-12-10T18:27:37.130Z,9.67
2018-12-10T18:30:05.622Z,11.13
2018-12-10T18:32:33.519Z,13.27
2018-12-10T18:35:01.092Z,8.90
2018-12-10T18:37:29.305Z,8.70
2018-12-10T18:39:56.858Z,7.97
2018-12-10T18:42:24.480Z,10.30
2018-12-10T18:44:52.431Z,12.47
2018-12-10T18:47:19.989Z,13.70
2018-12-10T18:49:47.603Z,14.40
2018-12-10T18:52:15.579Z,14.43
2018-12-10T18:54:43.141Z,16.30
2018-12-10T18:57:10.704Z,15.63
2018-12-10T18:59:38.761Z,14.07
2018-12-10T19:02:06.282Z,15.77
2018-12-10T19:04:33.808Z,13.60
2018-12-10T19:07:01.592Z,11.07
2018-12-10T19:09:29.134Z,9.90
2018-12-10T19:11:56.682Z,8.17
2018-12-10T19:14:24.514Z,7.77
2018-12-10T19:16:52.039Z,7.47
2018-12-10T19:19:19.558Z,7.73
2018-12-10T19:21:47.249Z,8.40
2018-12-10T19:24:14.871Z,8.20
2018-12-10T19:26:42.401Z,8.43
2018-12-10T19:29:10.239Z,7.63
2018-12-10T19:31:37.759Z,9.60
2018-12-10T19:34:05.307Z,10.40
2018-12-10T19:36:33.448Z,9.80
2018-12-10T19:39:01.035Z,9.60
2018-12-10T19:41:28.656Z,11.37
2018-12-10T19:43:56.536Z,9.77
2018-12-10T19:46:24.126Z,7.90
2018-12-10T19:48:51.732Z,9.23
2018-12-10T19:51:19.336Z,9.00
2018-12-10T19:53:46.888Z,6.37
2018-12-10T19:56:14.420Z,8.37
2018-12-10T19:58:42.331Z,7.40
2018-12-10T20:01:09.911Z,8.37
2018-12-10T20:03:38.240Z,7.80
2018-12-10T20:06:16.346Z,7.87
2018-12-10T20:08:43.892Z,8.70
2018-12-10T20:11:11.488Z,10.03
2018-12-10T20:13:39.324Z,11.23
2018-12-10T20:16:06.883Z,11.40
2018-12-10T20:18:34.870Z,9.17
2018-12-10T20:21:02.389Z,9.07
2018-12-10T20:23:29.973Z,9.60
2018-12-10T20:25:58.461Z,9.00
2018-12-10T20:28:26.101Z,9.53
2018-12-10T20:30:53.675Z,9.70
2018-12-10T20:33:21.282Z,10.20
2018-12-10T20:35:48.915Z,9.30
2018-12-10T20:38:16.435Z,8.87
2018-12-10T20:40:44.337Z,9.73
2018-12-10T20:43:11.855Z,10.00
2018-12-10T20:45:39.395Z,8.70
2018-12-10T20:48:06.949Z,9.90
2018-12-10T20:50:34.506Z,8.77
2018-12-10T20:53:02.033Z,8.67
2018-12-10T20:55:29.911Z,8.53
2018-12-10T20:57:57.579Z,8.03
2018-12-10T21:00:25.129Z,5.87
2018-12-10T21:02:52.912Z,8.13
2018-12-10T21:05:20.435Z,7.87
2018-12-10T21:07:47.944Z,6.43
2018-12-10T21:10:15.878Z,6.70
2018-12-10T21:12:43.395Z,5.90
2018-12-10T21:15:10.920Z,4.63
2018-12-10T21:17:38.671Z,4.20
2018-12-10T21:20:07.318Z,3.67
2018-12-10T21:22:34.914Z,3.17
2018-12-10T21:25:30.513Z,2.50
2018-12-10T21:27:58.133Z,3.60
2018-12-10T21:30:25.644Z,2.57
2018-12-10T21:32:53.198Z,4.03
2018-12-10T21:35:20.728Z,4.67
2018-12-10T21:37:48.249Z,4.67
2018-12-10T21:40:16.013Z,3.23
2018-12-10T21:42:43.978Z,2.87
2018-12-10T21:45:11.492Z,4.87
2018-12-10T21:47:38.998Z,5.30
2018-12-10T21:50:06.566Z,5.20
2018-12-10T21:52:34.074Z,5.27
2018-12-10T21:55:01.585Z,7.17
2018-12-10T21:57:29.165Z,7.43
2018-12-10T21:59:56.718Z,6.73
2018-12-10T22:02:24.716Z,7.03
2018-12-10T22:04:52.540Z,6.73
2018-12-10T22:07:20.525Z,7.07
2018-12-10T22:09:48.029Z,5.77
2018-12-10T22:12:15.904Z,5.47
2018-12-10T22:14:43.442Z,4.70
2018-12-10T22:17:10.940Z,5.30
2018-12-10T22:19:38.450Z,5.57
2018-12-10T22:22:06.291Z,3.70
2018-12-10T22:24:33.790Z,3.13
2018-12-10T22:27:01.336Z,2.70
2018-12-10T22:29:29.176Z,2.20
2018-12-10T22:31:56.693Z,3.17
2018-12-10T22:34:24.198Z,1.93
2018-12-10T22:36:52.080Z,1.37
2018-12-10T22:39:19.574Z,1.70
2018-12-10T22:41:47.138Z,1.43
2018-12-10T22:44:14.970Z,1.73
2018-12-10T22:46:42.527Z,1.13
2018-12-10T22:49:10.027Z,1.33
2018-12-10T22:51:37.953Z,1.47
2018-12-10T22:54:05.458Z,1.03
2018-12-10T22:56:32.972Z,1.23
2018-12-10T22:59:02.205Z,1.50
2018-12-10T23:01:29.846Z,2.07
2018-12-10T23:03:57.358Z,2.77
2018-12-10T23:06:25.251Z,3.23
2018-12-10T23:08:53.336Z,3.00
2018-12-10T23:11:20.919Z,2.30
2018-12-10T23:13:48.429Z,1.20
2018-12-10T23:16:16.226Z,1.30
2018-12-10T23:18:43.714Z,1.50
2018-12-10T23:21:11.244Z,0.87
2018-12-10T23:23:39.110Z,2.07
2018-12-10T23:26:06.676Z,0.87
2018-12-10T23:28:34.209Z,0.93
2018-12-10T23:31:02.195Z,1.20
2018-12-10T23:33:29.722Z,1.10
2018-12-10T23:35:57.244Z,0.80
2018-12-10T23:38:24.786Z,0.90
2018-12-10T23:40:52.306Z,0.70
2018-12-10T23:43:24.988Z,1.10
2018-12-10T23:45:53.319Z,1.10
2018-12-10T23:50:55.444Z,0.80
2018-12-10T23:53:22.957Z,0.97
2018-12-10T23:55:50.459Z,0.80
2018-12-10T23:58:19.272Z,0.77
